Latest Weather Observations for Coober Pedy Airport

IDS60801

Issued at 10:32 am CDT Thursday 11 February 2016 (issued every 30 minutes, with the page automatically refreshed every 10 minutes)

About weather observations | Map of weather stations | Latest weather observations for SA | Other Formats
Station Details ID: 016090 Name: COOBER PEDY AIRPORT Lat: -29.03 Lon: 134.72 Height: 225.0 m
Data from the previous 72 hours. | See also: Recent months at Coober Pedy Airport
Date/Time
CDT
Temp
°C
App
Temp
°C
Dew
Point
Rel
Hum
%
Delta-T
°C
Wind Press
QNH
hPa
Press
MSL
hPa
Rain
since 9 am
mm
Dir
 
Spd
km/h
Gust
km/h
Spd
kts
Gust
kts
11/10:30am 26.2 20.6 10.0 36 9.1 SSW 30 35 16 19 1014.4 1012.9 0.0
11/10:00am 24.5 19.2 10.0 40 8.1 SSW 28 35 15 19 1014.5 1013.0 0.0
11/09:30am 23.5 17.9 10.2 43 7.4 SSW 30 35 16 19 1014.4 1012.9 0.0
11/09:00am 22.4 17.1 9.9 45 6.9 SSW 28 33 15 18 1014.1 1012.6 0.0
11/08:30am 21.3 15.5 9.5 47 6.4 SSW 30 33 16 18 1014.1 1012.6 0.0
11/08:00am 21.0 16.1 8.6 45 6.6 SW 24 30 13 16 1014.1 1012.6 0.0
11/07:30am 20.8 15.9 7.1 41 7.1 SSW 22 26 12 14 1013.7 1012.2 0.0
11/07:00am 21.3 15.5 6.4 38 7.6 SSW 26 32 14 17 1013.5 1012.0 0.0
11/06:30am 21.9 16.4 5.8 35 8.2 SSW 24 30 13 16 1013.1 1011.6 0.0
11/06:00am 22.5 17.0 5.9 34 8.5 SSW 24 30 13 16 1013.0 1011.5 0.0
11/05:30am 23.1 17.2 6.0 33 8.8 SSW 26 32 14 17 1012.8 1011.3 0.0
11/05:00am 23.6 18.2 6.4 33 8.9 SSW 24 28 13 15 1012.3 1010.9 0.0
11/04:30am 24.5 19.5 6.3 31 9.5 SSW 22 32 12 17 1012.3 1010.9 0.0
11/04:00am 25.1 19.7 6.3 30 9.8 S 24 28 13 15 1012.2 1010.8 0.0
11/03:30am 25.6 20.2 6.3 29 10.1 S 24 28 13 15 1012.2 1010.8 0.0
11/03:00am 26.5 19.9 6.0 27 10.7 S 30 35 16 19 1012.0 1010.6 0.0
11/02:30am 27.4 20.2 5.1 24 11.6 S 32 39 17 21 1011.9 1010.4 0.0
11/02:00am 28.2 21.0 5.1 23 12.0 S 32 41 17 22 1012.0 1010.6 0.0
11/01:30am 28.8 22.8 3.6 20 12.8 S 24 30 13 16 1012.3 1010.9 0.0
11/01:00am 29.5 22.8 3.5 19 13.3 S 28 33 15 18 1012.4 1011.0 0.0
11/12:30am 30.5 23.8 3.5 18 13.9 S 28 35 15 19 1012.5 1011.1 0.0
11/12:00am 30.9 23.1 -4.2 10 15.9 S 28 33 15 18 1012.5 1011.1 0.0
 
Date/Time
CDT
Temp
°C
App
Temp
°C
Dew
Point
Rel
Hum
%
Delta-T
°C
Wind Press
QNH
hPa
Press
MSL
hPa
Rain
since 9 am
mm
Dir
 
Spd
km/h
Gust
km/h
Spd
kts
Gust
kts
10/11:30pm 31.0 24.5 -5.5 9 16.1 SSW 20 22 11 12 1012.4 1011.0 0.0
10/11:00pm 32.0 25.8 -4.8 9 16.6 S 19 20 10 11 1012.2 1010.8 0.0
10/10:30pm 32.5 26.9 -3.0 10 16.6 SSW 17 20 9 11 1012.1 1010.7 0.0
10/10:00pm 33.5 28.0 -2.3 10 17.0 S 17 20 9 11 1011.8 1010.3 0.0
10/09:30pm 34.8 28.8 -2.7 9 17.9 SSW 19 22 10 12 1011.5 1010.0 0.0
10/09:00pm 35.9 29.3 -3.5 8 18.7 SSW 22 28 12 15 1011.3 1009.8 0.0
10/08:30pm 36.7 30.1 -2.9 8 19.1 SSW 22 28 12 15 1011.0 1009.5 0.0
10/08:00pm 37.8 31.0 -2.1 8 19.6 SSW 24 32 13 17 1010.8 1009.3 0.0
10/07:30pm 38.2 31.4 -1.8 8 19.8 S 24 35 13 19 1010.5 1009.0 0.0
10/07:00pm 38.9 31.0 -1.3 8 20.1 SSW 30 46 16 25 1010.2 1008.7 0.0
10/06:58pm 39.1 31.6 -1.1 8 20.2 SSW 28 46 15 25 1010.1 1008.6 0.0
10/06:30pm 38.6 32.2 -1.5 8 20.0 SSW 22 33 12 18 1010.2 1008.7 0.0
10/06:00pm 39.3 33.9 -1.0 8 20.3 S 17 33 9 18 1010.0 1008.5 0.0
10/05:30pm 39.7 34.1 -2.5 7 20.9 SW 17 24 9 13 1010.0 1008.5 0.0
10/05:00pm 39.6 32.3 -2.6 7 20.8 SW 26 37 14 20 1010.1 1008.6 0.0
10/04:30pm 39.7 32.4 -2.5 7 20.9 SSW 26 43 14 23 1010.2 1008.7 0.0
10/04:00pm 39.7 34.9 -2.5 7 20.8 W 13 24 7 13 1010.5 1009.0 0.0
10/03:30pm 39.5 33.4 -2.6 7 20.8 SW 20 30 11 16 1010.8 1009.3 0.0
10/03:00pm 39.7 33.8 -2.5 7 20.9 SW 19 28 10 15 1011.4 1009.9 0.0
10/02:30pm 38.8 33.9 -3.2 7 20.4 WSW 13 28 7 15 1011.7 1010.2 0.0
10/02:00pm 37.7 31.8 -2.2 8 19.6 SSW 19 30 10 16 1012.2 1010.8 0.0
10/01:30pm 38.2 33.3 -0.2 9 19.5 SW 15 24 8 13 1012.5 1011.1 0.0
10/01:00pm 37.0 33.8 2.9 12 18.0 S 9 20 5 11 1013.0 1011.5 0.0
10/12:30pm 35.8 32.6 3.1 13 17.2 SSE 9 15 5 8 1013.5 1012.0 0.0
10/12:00pm 34.3 30.9 4.0 15 16.0 SSW 11 15 6 8 1013.8 1012.3 0.0
10/11:30am 33.8 30.3 3.6 15 15.8 SE 11 17 6 9 1014.2 1012.7 0.0
10/11:00am 32.3 28.6 4.2 17 14.8 SSE 13 19 7 10 1014.4 1012.9 0.0
10/10:30am 31.4 26.9 4.2 18 14.2 SSE 17 24 9 13 1014.5 1013.0 0.0
10/10:00am 29.6 24.7 4.3 20 13.1 SSE 19 24 10 13 1014.6 1013.1 0.0
10/09:30am 27.9 22.4 4.2 22 12.1 S 22 28 12 15 1014.5 1013.0 0.0
10/09:00am 26.3 19.8 2.9 22 11.6 S 26 32 14 17 1014.4 1012.9 0.0
10/08:30am 25.3 19.3 0.8 20 11.6 S 22 30 12 16 1014.2 1012.7 0.0
10/08:00am 24.3 19.4 -0.8 19 11.4 S 15 20 8 11 1014.2 1012.7 0.0
10/07:30am 23.5 18.2 -0.7 20 11.0 SSW 17 20 9 11 1013.9 1012.4 0.0
10/07:00am 23.8 18.0 -1.2 19 11.3 SSW 19 24 10 13 1013.6 1012.1 0.0
10/06:30am 24.0 18.6 -1.0 19 11.3 SSW 17 22 9 12 1013.4 1011.9 0.0
10/06:00am 24.7 17.9 -2.0 17 11.9 S 24 28 13 15 1013.3 1011.8 0.0
10/05:30am 25.1 18.8 -0.9 18 11.9 SSE 22 28 12 15 1013.2 1011.7 0.0
10/05:00am 25.4 20.1 2.8 23 11.1 S 20 24 11 13 1013.0 1011.5 0.0
10/04:30am 26.2 20.1 2.8 22 11.6 S 24 30 13 16 1013.0 1011.5 0.0
10/04:00am 26.9 21.0 4.0 23 11.6 S 24 30 13 16 1012.9 1011.4 0.0
10/03:30am 27.3 21.1 6.1 26 11.2 S 28 35 15 19 1012.8 1011.3 0.0
10/03:00am 27.8 21.8 7.1 27 11.1 S 28 33 15 18 1012.8 1011.3 0.0
10/02:30am 28.7 22.6 6.7 25 11.8 S 28 35 15 19 1012.8 1011.3 0.0
10/02:00am 29.1 23.0 4.6 21 12.7 S 26 32 14 17 1013.0 1011.5 0.0
10/01:30am 29.7 22.6 1.2 16 14.0 S 28 33 15 18 1013.1 1011.6 0.0
10/01:00am 30.8 24.9 -0.8 13 15.1 S 20 28 11 15 1013.2 1011.7 0.0
10/12:30am 31.2 25.4 -1.5 12 15.5 S 19 20 10 11 1013.3 1011.8 0.0
10/12:00am 32.1 26.2 -0.9 12 15.9 S 20 24 11 13 1013.4 1011.9 0.0
 
Date/Time
CDT
Temp
°C
App
Temp
°C
Dew
Point
Rel
Hum
%
Delta-T
°C
Wind Press
QNH
hPa
Press
MSL
hPa
Rain
since 9 am
mm
Dir
 
Spd
km/h
Gust
km/h
Spd
kts
Gust
kts
09/11:30pm 32.6 26.6 -1.7 11 16.4 S 20 24 11 13 1013.5 1012.0 0.0
09/11:00pm 32.7 27.0 -0.4 12 16.2 S 19 20 10 11 1013.7 1012.2 0.0
09/10:30pm 33.3 28.1 0.1 12 16.4 S 17 19 9 10 1013.7 1012.2 0.0
09/10:00pm 34.3 28.6 -0.4 11 17.1 S 19 20 10 11 1013.4 1011.9 0.0
09/09:30pm 35.2 29.5 0.3 11 17.5 S 20 22 11 12 1013.3 1011.8 0.0
09/09:00pm 36.1 30.1 1.0 11 17.9 S 22 28 12 15 1013.0 1011.5 0.0
09/08:30pm 36.7 30.6 0.1 10 18.5 SSW 22 26 12 14 1012.8 1011.3 0.0
09/08:00pm 37.4 31.7 0.7 10 18.8 S 20 28 11 15 1012.5 1011.1 0.0
09/07:30pm 38.1 32.1 1.2 10 19.1 S 22 32 12 17 1012.4 1011.0 0.0
09/07:00pm 38.5 33.3 0.0 9 19.6 SSW 17 32 9 17 1012.3 1010.9 0.0
09/06:30pm 38.9 34.5 0.3 9 19.8 SSW 13 26 7 14 1012.2 1010.8 0.0
09/06:00pm 38.5 35.6 1.5 10 19.3 SSE 6 19 3 10 1012.2 1010.8 0.0
09/05:30pm 38.4 33.4 1.4 10 19.3 S 17 24 9 13 1012.4 1011.0 0.0
09/05:00pm 38.6 33.6 1.6 10 19.3 SSE 17 28 9 15 1012.6 1011.2 0.0
09/04:30pm 38.0 32.4 1.1 10 19.1 S 20 32 11 17 1012.9 1011.4 0.0
09/04:00pm 38.0 33.7 1.1 10 19.1 ESE 13 28 7 15 1013.2 1011.7 0.0
09/03:30pm 38.4 33.0 1.4 10 19.3 SSE 19 32 10 17 1013.7 1012.2 0.0
09/03:00pm 39.1 34.2 1.9 10 19.6 SSW 17 28 9 15 1014.1 1012.6 0.0
09/02:30pm 38.4 34.9 1.4 10 19.2 E 9 20 5 11 1014.5 1013.0 0.0
09/02:00pm 37.3 34.3 1.9 11 18.4 N 7 30 4 16 1015.0 1013.5 0.0
09/01:30pm 37.5 34.0 3.3 12 18.2 SE 11 24 6 13 1015.4 1013.9 0.0
09/01:00pm 37.0 33.2 4.0 13 17.7 ENE 13 22 7 12 1015.8 1014.3 0.0
09/12:30pm 36.7 32.7 4.9 14 17.3 E 15 24 8 13 1016.2 1014.8 0.0
09/12:00pm 35.7 31.2 6.0 16 16.3 E 19 28 10 15 1016.6 1015.2 0.0
09/11:30am 34.8 29.5 7.0 18 15.5 E 24 33 13 18 1016.9 1015.5 0.0
09/11:00am 33.8 28.5 7.0 19 14.8 E 24 32 13 17 1017.1 1015.7 0.0
09/10:30am 32.6 27.4 7.4 21 13.9 E 24 32 13 17 1017.2 1015.8 0.0
09/10:00am 30.8 25.5 8.5 25 12.5 ESE 26 32 14 17 1017.4 1015.9 0.0
09/09:30am 29.5 24.2 8.5 27 11.7 SE 26 30 14 16 1017.4 1015.9 0.0
09/09:00am 27.5 22.1 7.9 29 10.7 SE 26 32 14 17 1017.4 1015.9 0.0
09/08:30am 26.3 21.1 7.4 30 10.1 SSE 24 30 13 16 1017.0 1015.6 0.0
09/08:00am 24.7 20.3 6.4 31 9.6 SSE 19 22 10 12 1016.7 1015.3 0.0
09/07:30am 24.0 19.5 6.3 32 9.2 SSE 19 20 10 11 1016.5 1015.1 0.0
09/07:00am 23.9 19.4 6.2 32 9.2 SSE 19 20 10 11 1016.2 1014.8 0.0
09/06:30am 24.4 20.6 5.7 30 9.6 SSE 15 19 8 10 1015.9 1014.4 0.0
09/06:00am 24.9 20.8 6.1 30 9.8 SSE 17 19 9 10 1015.8 1014.3 0.0
09/05:30am 25.2 21.0 5.9 29 10.0 SSE 17 20 9 11 1015.7 1014.2 0.0
09/05:00am 25.6 21.0 5.8 28 10.3 SSE 19 20 10 11 1015.7 1014.2 0.0
09/04:30am 26.1 21.3 5.7 27 10.6 SSE 20 24 11 13 1015.7 1014.2 0.0
09/04:00am 26.7 21.9 5.6 26 11.0 SSE 20 26 11 14 1015.6 1014.1 0.0
09/03:30am 27.2 21.8 4.3 23 11.7 SSE 22 28 12 15 1015.7 1014.2 0.0
09/03:00am 27.8 21.7 2.8 20 12.5 SSE 24 28 13 15 1015.8 1014.3 0.0
09/02:30am 28.2 22.4 2.4 19 12.8 S 22 26 12 14 1015.8 1014.3 0.0
09/02:00am 28.7 23.1 1.3 17 13.4 S 20 26 11 14 1015.8 1014.3 0.0
09/01:30am 29.4 23.8 1.0 16 13.9 SSE 20 24 11 13 1016.1 1014.7 0.0
09/01:00am 29.9 24.2 0.5 15 14.3 SSE 20 22 11 12 1016.2 1014.8 0.0
09/12:30am 30.7 24.6 0.2 14 14.8 SSE 22 26 12 14 1016.3 1014.9 0.0
09/12:00am 31.3 24.7 -0.4 13 15.3 SSE 24 28 13 15 1016.3 1014.9 0.0
 
Date/Time
CDT
Temp
°C
App
Temp
°C
Dew
Point
Rel
Hum
%
Delta-T
°C
Wind Press
QNH
hPa
Press
MSL
hPa
Rain
since 9 am
mm
Dir
 
Spd
km/h
Gust
km/h
Spd
kts
Gust
kts
08/11:30pm 31.8 25.3 0.0 13 15.5 SSE 24 32 13 17 1016.3 1014.9 0.0
08/11:00pm 32.5 25.7 0.6 13 15.8 SSE 26 32 14 17 1016.3 1014.9 0.0
08/10:30pm 33.2 26.1 1.1 13 16.1 SSE 28 33 15 18 1016.2 1014.8 0.0
08/10:00pm 33.9 28.2 2.7 14 16.1 SSE 22 28 12 15 1015.9 1014.4 0.0
08/09:30pm 34.5 28.1 3.1 14 16.4 SE 26 32 14 17 1015.6 1014.1 0.0
08/09:00pm 35.0 29.2 2.5 13 16.9 SE 22 28 12 15 1015.3 1013.8 0.0
08/08:30pm 35.8 29.8 0.8 11 17.8 SE 22 28 12 15 1015.0 1013.5 0.0
08/08:00pm 36.8 29.9 0.2 10 18.5 SSE 26 33 14 18 1014.6 1013.1 0.0
08/07:30pm 37.3 32.2 0.6 10 18.7 SE 17 28 9 15 1014.3 1012.8 0.0
08/07:00pm 37.4 31.7 0.7 10 18.8 SE 20 35 11 19 1014.2 1012.7 0.0
08/06:30pm 38.3 32.1 -0.1 9 19.5 SE 22 32 12 17 1014.1 1012.6 0.0
08/06:00pm 38.3 32.1 -0.1 9 19.5 S 22 30 12 16 1014.1 1012.6 0.0
08/05:30pm 38.1 33.2 -0.3 9 19.4 SE 15 30 8 16 1014.3 1012.8 0.0
08/05:00pm 38.0 31.0 -0.3 9 19.4 SE 26 41 14 22 1014.6 1013.1 0.0
08/04:30pm 37.1 31.6 0.4 10 18.7 SSE 19 32 10 17 1014.8 1013.3 0.0
08/04:00pm 37.9 32.8 1.0 10 19.0 SE 17 33 9 18 1015.1 1013.6 0.0
08/03:30pm 38.1 32.5 1.2 10 19.1 SSE 20 39 11 21 1015.5 1014.0 0.0
08/03:00pm 38.1 31.7 1.2 10 19.1 SSE 24 35 13 19 1015.9 1014.4 0.0
08/02:30pm 36.9 31.0 1.6 11 18.2 S 22 32 12 17 1016.3 1014.9 0.0
08/02:00pm 36.9 32.3 1.6 11 18.3 SE 15 30 8 16 1016.8 1015.4 0.0
08/01:30pm 37.4 32.1 2.0 11 18.5 SE 19 37 10 20 1017.2 1015.8 0.0
08/01:00pm 36.3 31.3 4.6 14 17.1 SE 20 32 11 17 1017.7 1016.2 0.0
08/12:30pm 35.4 30.6 5.8 16 16.2 ESE 20 33 11 18 1018.2 1016.7 0.0
08/12:00pm 34.8 29.9 7.0 18 15.5 SE 22 32 12 17 1018.4 1016.9 0.0
08/11:30am 33.5 28.4 7.5 20 14.5 SE 24 33 13 18 1018.7 1017.2 0.0
08/11:00am 31.6 26.1 5.9 20 13.8 SE 24 32 13 17 1018.9 1017.4 0.0

Other Formats:

Comma delimited format used in spreadsheet applications
http://www.bom.gov.au/fwo/IDS60801/IDS60801.95458.axf

JavaScript Object Notation format (JSON) in row-major order
http://www.bom.gov.au/fwo/IDS60801/IDS60801.95458.json